Time;durP1;ratioP1;P1;durP2;ratioP2;P2;SDS_P1;SDS_P2;PMS_P1;PMS_P2;Temp;Humidity;BMP_temperature;BMP_pressure;BME280_temperature;BME280_humidity;BME280_pressure;Samples;Min_cycle;Max_cycle;Signal;HPM_P1;HPM_P2
2022/04/10 00:01:09;;;;;;;8.00;7.40;;;;;;;14.31;44.43;100153.44;5086761;28;20406;-51
2022/04/10 00:03:36;;;;;;;8.73;8.02;;;;;;;14.31;44.61;100147.25;5086827;28;20410;-48
2022/04/10 00:06:04;;;;;;;8.77;8.18;;;;;;;14.13;44.66;100162.06;5087234;28;20438;-49
2022/04/10 00:08:31;;;;;;;8.32;7.65;;;;;;;13.99;45.00;100159.59;5087317;28;20445;-50
2022/04/10 00:10:59;;;;;;;8.52;7.93;;;;;;;14.06;44.79;100168.41;5086965;28;20420;-51
2022/04/10 00:13:57;;;;;;;8.57;7.88;;;;;;;14.10;44.82;100174.97;5127078;27;20452;-52
2022/04/10 00:16:25;;;;;;;8.65;7.95;;;;;;;14.20;44.49;100170.03;5127914;28;20445;-48
2022/04/10 00:18:52;;;;;;;8.30;7.70;;;;;;;14.29;44.52;100171.44;5108698;28;20482;-50
2022/04/10 00:21:19;;;;;;;8.73;8.02;;;;;;;14.36;44.25;100184.78;5127962;28;20414;-54
2022/04/10 00:25:36;;;;;;;8.98;8.18;;;;;;;14.17;44.68;100167.81;5086109;28;20989;-51
2022/04/10 00:28:03;;;;;;;8.88;8.25;;;;;;;14.19;44.55;100160.41;5087180;28;20429;-48
2022/04/10 00:30:32;;;;;;;9.50;8.70;;;;;;;14.10;44.66;100159.00;5086779;28;20422;-50
2022/04/10 00:32:59;;;;;;;9.23;8.52;;;;;;;14.29;44.15;100147.44;5086796;28;20792;-50
2022/04/10 00:35:26;;;;;;;9.68;8.88;;;;;;;14.16;44.73;100147.50;5086657;28;20811;-49
2022/04/10 00:37:53;;;;;;;9.63;8.83;;;;;;;13.95;44.91;100143.19;5086717;28;20417;-51
2022/04/10 00:40:20;;;;;;;9.27;8.57;;;;;;;13.79;45.29;100135.63;5086677;28;20438;-48
2022/04/10 00:42:50;;;;;;;9.68;8.95;;;;;;;13.66;45.55;100118.63;5086957;28;20442;-49
2022/04/10 00:45:17;;;;;;;9.52;8.73;;;;;;;13.38;46.59;100113.50;5086726;28;20436;-50
2022/04/10 00:47:45;;;;;;;9.57;8.85;;;;;;;13.21;46.88;100118.34;5085779;28;20997;-50
2022/04/10 00:50:14;;;;;;;10.18;9.38;;;;;;;13.39;46.81;100125.75;5086026;28;20425;-50
2022/04/10 00:52:43;;;;;;;10.40;9.60;;;;;;;13.28;46.99;100119.16;5085564;28;20445;-48
2022/04/10 00:55:10;;;;;;;10.40;9.50;;;;;;;13.63;46.17;100129.69;5085501;28;20826;-51
2022/04/10 00:57:38;;;;;;;10.55;9.68;;;;;;;13.56;46.14;100135.00;5085842;28;20455;-49
2022/04/10 01:00:36;;;;;;;11.82;10.82;;;;;;;13.32;46.40;100146.22;5085370;28;20819;-48
2022/04/10 01:03:03;;;;;;;12.45;11.35;;;;;;;13.14;47.07;100144.94;5086093;28;20927;-50
2022/04/10 01:05:30;;;;;;;12.95;11.85;;;;;;;13.13;47.08;100145.16;5086003;28;20911;-49
2022/04/10 01:09:57;;;;;;;13.95;12.75;;;;;;;13.27;46.70;100138.84;5085459;28;20794;-50
2022/04/10 01:12:24;;;;;;;14.60;13.40;;;;;;;13.16;46.83;100140.25;5086359;28;20449;-53
2022/04/10 01:14:52;;;;;;;14.65;13.40;;;;;;;12.86;47.38;100133.59;5086300;28;20456;-49
2022/04/10 01:17:19;;;;;;;15.55;14.25;;;;;;;12.70;47.89;100124.94;5071246;28;20442;-48
2022/04/10 01:19:46;;;;;;;16.37;14.97;;;;;;;12.63;48.04;100126.75;5067027;28;20446;-48
2022/04/10 01:23:02;;;;;;;16.55;15.15;;;;;;;12.89;47.44;100117.22;5127169;27;20455;-48
2022/04/10 01:25:29;;;;;;;16.10;14.80;;;;;;;13.05;46.86;100122.19;5128015;28;20460;-50
2022/04/10 01:28:01;;;;;;;17.75;16.25;;;;;;;12.89;47.31;100128.72;5128062;27;20464;-52
2022/04/10 01:30:28;;;;;;;17.90;16.30;;;;;;;12.68;47.73;100136.81;5127701;27;20403;-49
2022/04/10 01:32:57;;;;;;;18.10;16.50;;;;;;;12.73;47.79;100137.00;5127617;28;20922;-49
2022/04/10 01:35:26;;;;;;;18.47;16.87;;;;;;;12.74;47.56;100143.97;5127584;27;20417;-50
2022/04/10 01:37:55;;;;;;;19.58;17.77;;;;;;;12.78;47.52;100151.38;5127544;28;20815;-50
2022/04/10 01:40:24;;;;;;;19.67;17.88;;;;;;;12.81;47.26;100152.81;5127553;27;20896;-48
2022/04/10 01:42:51;;;;;;;19.55;17.67;;;;;;;12.82;47.29;100165.91;5127659;28;20449;-50
2022/04/10 01:46:49;;;;;;;19.03;17.20;;;;;;;12.86;47.27;100152.22;5127207;27;20482;-49
2022/04/10 01:49:16;;;;;;;20.00;18.17;;;;;;;13.08;46.64;100152.91;5128129;27;20415;-48
2022/04/10 01:51:43;;;;;;;20.17;18.25;;;;;;;12.90;46.82;100150.81;5128151;28;20419;-49
2022/04/10 01:54:10;;;;;;;20.02;18.20;;;;;;;12.96;46.63;100150.00;5127770;27;20403;-48
2022/04/10 01:56:37;;;;;;;20.50;18.58;;;;;;;12.86;46.72;100154.88;5128055;28;20415;-50
2022/04/10 01:59:04;;;;;;;20.80;18.95;;;;;;;12.70;46.89;100166.69;5127996;27;20408;-48
2022/04/10 02:01:32;;;;;;;20.60;18.80;;;;;;;12.54;47.17;100176.59;5127862;28;21022;-49
2022/04/10 02:04:00;;;;;;;20.80;18.90;;;;;;;12.68;46.90;100168.72;5127562;28;20402;-48
2022/04/10 02:06:27;;;;;;;20.58;18.75;;;;;;;12.36;47.39;100178.97;5127464;28;20458;-51
2022/04/10 02:08:54;;;;;;;20.42;18.48;;;;;;;12.38;47.41;100171.59;5127778;28;20402;-50
2022/04/10 02:11:23;;;;;;;19.17;17.42;;;;;;;12.63;46.79;100182.59;5127486;28;20934;-48
2022/04/10 02:13:50;;;;;;;20.23;18.33;;;;;;;12.45;47.26;100182.28;5127371;27;20908;-48
2022/04/10 02:16:19;;;;;;;19.65;17.95;;;;;;;12.73;46.35;100161.78;5127447;28;20442;-48
2022/04/10 02:18:47;;;;;;;19.88;17.98;;;;;;;12.65;46.55;100166.44;5127619;27;20472;-48
2022/04/10 02:21:16;;;;;;;20.73;18.83;;;;;;;12.64;46.61;100192.22;5127262;27;20446;-50
2022/04/10 02:23:43;;;;;;;19.80;17.85;;;;;;;12.72;46.59;100181.41;5127224;28;20438;-49
2022/04/10 02:26:12;;;;;;;19.98;18.10;;;;;;;12.86;46.15;100176.16;5126990;28;20433;-48
2022/04/10 02:28:39;;;;;;;20.45;18.58;;;;;;;12.68;46.67;100184.66;5126808;27;20935;-49
2022/04/10 02:31:06;;;;;;;19.52;17.73;;;;;;;12.73;46.50;100191.03;5126163;27;20438;-49
2022/04/10 02:33:33;;;;;;;19.00;17.30;;;;;;;12.78;46.25;100190.44;5126612;27;20431;-48
2022/04/10 02:36:00;;;;;;;18.90;17.20;;;;;;;12.65;46.46;100196.50;5124739;27;20403;-49
2022/04/10 02:38:43;;;;;;;19.17;17.48;;;;;;;12.49;46.82;100207.44;5114224;27;2053583;-48
2022/04/10 02:41:10;;;;;;;19.10;17.33;;;;;;;12.29;46.84;100204.66;5167326;27;20411;-50
2022/04/10 02:43:39;;;;;;;18.35;16.55;;;;;;;12.22;47.33;100199.28;5167110;27;20894;-49
2022/04/10 02:46:06;;;;;;;18.45;16.75;;;;;;;12.36;47.06;100197.56;5166914;27;20919;-51
2022/04/10 02:48:33;;;;;;;18.17;16.47;;;;;;;12.61;46.36;100201.38;5167285;27;21019;-48
2022/04/10 02:51:02;;;;;;;18.50;16.80;;;;;;;12.43;46.62;100191.25;5169070;27;20409;-48
2022/04/10 02:53:29;;;;;;;17.48;15.98;;;;;;;12.56;46.34;100195.84;5168994;27;20961;-49
2022/04/10 02:55:57;;;;;;;18.10;16.50;;;;;;;12.54;46.22;100197.06;5169012;27;20866;-48
2022/04/10 02:58:24;;;;;;;17.88;16.30;;;;;;;12.51;46.31;100202.75;5169089;27;20994;-48
2022/04/10 03:00:51;;;;;;;17.95;16.35;;;;;;;12.35;46.47;100207.38;5169192;27;20919;-48
2022/04/10 03:03:18;;;;;;;16.98;15.48;;;;;;;12.32;46.41;100217.56;5168860;27;20908;-48
2022/04/10 03:05:45;;;;;;;165.57;128.98;;;;;;;12.39;46.21;100226.41;5168793;27;20406;-48
2022/04/10 03:08:12;;;;;;;16.85;15.20;;;;;;;12.01;47.18;100237.34;5169015;27;20427;-48
2022/04/10 03:10:39;;;;;;;17.95;16.45;;;;;;;12.09;46.86;100236.41;5168942;27;20781;-49
2022/04/10 03:13:08;;;;;;;22.17;20.27;;;;;;;11.95;46.78;100238.09;5168586;27;20420;-48
2022/04/10 03:15:35;;;;;;;20.75;19.05;;;;;;;11.98;46.82;100241.22;5159514;27;20412;-48
2022/04/10 03:18:02;;;;;;;18.17;16.58;;;;;;;12.05;46.68;100242.09;5131310;27;20824;-48
2022/04/10 03:22:44;;;;;;;21.55;19.85;;;;;;;12.26;46.28;100240.41;5048972;28;20405;-48
2022/04/10 03:25:12;;;;;;;18.30;16.80;;;;;;;12.20;46.41;100247.31;5048131;28;20417;-49
2022/04/10 03:29:40;;;;;;;16.23;14.82;;;;;;;12.47;45.60;100271.44;5096854;27;20451;-50
2022/04/10 03:32:08;;;;;;;16.95;15.32;;;;;;;12.30;45.92;100262.09;5087068;28;20406;-48
2022/04/10 03:34:35;;;;;;;18.70;17.20;;;;;;;12.44;45.43;100263.84;5086589;28;20543;-51
2022/04/10 03:37:02;;;;;;;17.98;16.38;;;;;;;12.54;45.26;100259.03;5086506;28;20936;-50
2022/04/10 03:39:29;;;;;;;15.43;14.02;;;;;;;12.68;44.78;100272.44;5086483;28;20410;-51
2022/04/10 03:41:56;;;;;;;17.33;15.93;;;;;;;12.51;45.05;100270.03;5086469;28;20418;-51
2022/04/10 03:44:23;;;;;;;14.77;13.40;;;;;;;12.14;45.67;100265.88;5086400;28;20418;-50
2022/04/10 03:46:51;;;;;;;16.70;15.30;;;;;;;12.44;45.02;100266.50;5086372;28;20926;-49
2022/04/10 03:49:18;;;;;;;13.18;12.07;;;;;;;12.31;45.34;100277.03;5086650;28;20432;-51
2022/04/10 03:51:45;;;;;;;13.50;12.40;;;;;;;12.53;44.66;100273.34;5086376;28;21002;-49
2022/04/10 03:54:12;;;;;;;12.75;11.65;;;;;;;12.08;45.72;100274.59;5086497;28;20408;-52
2022/04/10 03:56:39;;;;;;;10.93;10.03;;;;;;;12.01;45.28;100287.81;5086168;28;20414;-51
2022/04/10 03:59:06;;;;;;;10.93;10.13;;;;;;;12.04;45.06;100279.47;5086409;28;20410;-51
2022/04/10 04:01:33;;;;;;;9.45;8.65;;;;;;;12.03;45.19;100278.66;5086417;28;20427;-49
2022/04/10 04:04:01;;;;;;;7.15;6.55;;;;;;;11.96;44.89;100274.28;5079501;28;20930;-50
2022/04/10 04:06:28;;;;;;;5.80;5.38;;;;;;;11.93;44.84;100270.16;5079957;28;20507;-51
2022/04/10 04:08:55;;;;;;;4.90;4.22;;;;;;;12.07;44.39;100271.13;5079614;28;20476;-51
2022/04/10 04:11:22;;;;;;;5.25;3.70;;;;;;;12.00;44.42;100286.19;5085884;28;20402;-49
2022/04/10 04:13:49;;;;;;;3.70;3.40;;;;;;;11.84;44.65;100297.84;5085874;28;20414;-50
2022/04/10 04:16:16;;;;;;;5.15;3.80;;;;;;;11.82;44.68;100305.97;5085839;28;20476;-50
2022/04/10 04:18:42;;;;;;;3.42;3.13;;;;;;;11.82;44.84;100313.13;5086138;28;20493;-51
2022/04/10 04:21:11;;;;;;;2.95;2.75;;;;;;;11.92;44.24;100304.88;5086095;28;20461;-48
2022/04/10 04:23:39;;;;;;;3.08;2.83;;;;;;;11.82;44.74;100310.47;5085515;28;20485;-51
2022/04/10 04:26:06;;;;;;;3.13;2.92;;;;;;;11.77;45.17;100312.88;5085666;28;20410;-52
2022/04/10 04:28:36;;;;;;;2.50;1.60;;;;;;;11.61;45.38;100324.53;5084150;28;20920;-49
2022/04/10 04:31:03;;;;;;;2.58;2.38;;;;;;;11.25;45.59;100335.94;5090928;28;20404;-49
2022/04/10 04:33:29;;;;;;;2.35;2.15;;;;;;;11.22;45.33;100331.81;5068485;28;20404;-49
2022/04/10 04:35:56;;;;;;;3.70;1.70;;;;;;;11.21;46.07;100339.97;5093313;28;20801;-51
2022/04/10 04:38:25;;;;;;;1.30;1.20;;;;;;;11.25;45.87;100341.22;5094239;28;20483;-48
2022/04/10 04:40:52;;;;;;;1.20;1.10;;;;;;;11.11;46.48;100358.81;5083678;28;20851;-48
2022/04/10 04:43:19;;;;;;;1.70;1.60;;;;;;;11.02;46.68;100354.56;5072427;28;20908;-49
2022/04/10 04:45:48;;;;;;;2.28;1.95;;;;;;;11.02;48.44;100367.84;5072046;28;20455;-48
2022/04/10 04:49:56;;;;;;;11.18;10.40;;;;;;;10.94;49.42;100375.91;5101060;27;20455;-48
2022/04/10 04:52:23;;;;;;;12.95;12.13;;;;;;;10.99;50.17;100378.84;5086573;28;20777;-48
2022/04/10 04:54:50;;;;;;;1.92;1.50;;;;;;;10.71;51.06;100382.91;5086459;28;20852;-52
2022/04/10 04:57:17;;;;;;;4.60;4.30;;;;;;;10.87;51.09;100386.38;5086595;28;20408;-49
2022/04/10 04:59:44;;;;;;;6.38;3.88;;;;;;;10.56;51.90;100387.31;5086827;28;20445;-48
2022/04/10 05:02:11;;;;;;;2.67;2.10;;;;;;;10.22;52.33;100390.34;5086983;28;20482;-49
2022/04/10 05:04:38;;;;;;;2.55;2.17;;;;;;;10.15;53.39;100395.50;5086717;28;20505;-49
2022/04/10 05:07:06;;;;;;;8.20;7.47;;;;;;;10.22;53.82;100388.50;5086362;28;20904;-50
2022/04/10 05:09:33;;;;;;;3.83;2.70;;;;;;;9.94;55.56;100386.38;5086133;28;20429;-48
2022/04/10 05:12:00;;;;;;;12.02;11.07;;;;;;;9.99;55.16;100393.78;5086338;28;20414;-50
2022/04/10 05:14:27;;;;;;;4.72;4.32;;;;;;;10.23;55.97;100406.06;5084951;28;20410;-50
2022/04/10 05:16:54;;;;;;;4.43;4.13;;;;;;;10.03;56.01;100397.75;5086081;28;20461;-50
2022/04/10 05:19:21;;;;;;;5.35;4.95;;;;;;;9.88;56.39;100405.59;5086482;28;20438;-47
2022/04/10 05:21:48;;;;;;;3.75;2.80;;;;;;;9.78;57.23;100415.56;5086291;28;20449;-47
2022/04/10 05:24:17;;;;;;;6.35;5.63;;;;;;;9.93;57.54;100408.53;5086360;28;20442;-47
2022/04/10 05:26:44;;;;;;;10.63;9.68;;;;;;;9.98;57.85;100410.69;5085891;28;20414;-48
2022/04/10 05:29:11;;;;;;;13.55;12.35;;;;;;;9.91;58.62;100421.13;5085740;28;20422;-49
2022/04/10 05:31:38;;;;;;;6.23;5.60;;;;;;;9.81;58.57;100417.84;5085832;28;20460;-48
2022/04/10 05:34:04;;;;;;;6.28;5.68;;;;;;;9.93;58.19;100423.59;5085743;28;20410;-51
2022/04/10 05:36:31;;;;;;;61.63;57.75;;;;;;;9.80;59.81;100423.34;5085932;28;20421;-51
2022/04/10 05:38:58;;;;;;;5.55;5.07;;;;;;;9.84;58.28;100422.00;5085581;28;20803;-48
2022/04/10 05:41:27;;;;;;;14.77;13.57;;;;;;;9.99;57.99;100422.91;5085593;28;20410;-48
2022/04/10 05:45:58;;;;;;;12.20;11.23;;;;;;;10.22;57.51;100428.25;5057505;28;20934;-51
2022/04/10 05:48:25;;;;;;;6.88;6.28;;;;;;;10.42;57.03;100430.47;5046656;28;20452;-49
2022/04/10 05:50:52;;;;;;;5.57;5.05;;;;;;;10.51;57.06;100427.63;5046806;28;20448;-49
2022/04/10 05:53:19;;;;;;;6.85;6.25;;;;;;;10.36;57.20;100410.81;5046368;28;20441;-51
2022/04/10 05:55:47;;;;;;;6.00;5.28;;;;;;;10.40;58.18;100414.75;5046613;28;20410;-49
2022/04/10 05:58:15;;;;;;;6.93;6.35;;;;;;;10.38;56.79;100416.75;5046158;28;20413;-51
2022/04/10 06:00:42;;;;;;;3.08;2.60;;;;;;;10.37;56.74;100431.03;5046480;28;20423;-49
2022/04/10 06:03:10;;;;;;;3.58;3.20;;;;;;;10.51;56.81;100429.41;5046135;28;20794;-50
2022/04/10 06:05:37;;;;;;;6.53;5.93;;;;;;;10.52;55.73;100420.47;5046370;28;20429;-50
2022/04/10 06:08:05;;;;;;;4.22;3.67;;;;;;;10.45;55.30;100416.88;5046209;28;20424;-51
2022/04/10 06:10:32;;;;;;;4.20;2.90;;;;;;;10.41;55.75;100424.38;5046049;28;20416;-51
2022/04/10 06:13:07;;;;;;;2.65;2.45;;;;;;;10.31;54.56;100416.63;5045988;28;20422;-50
2022/04/10 06:15:34;;;;;;;2.97;2.78;;;;;;;10.53;53.90;100414.16;5040665;28;20413;-50
2022/04/10 06:18:01;;;;;;;3.35;3.15;;;;;;;10.24;53.85;100420.94;5046132;28;20428;-49
2022/04/10 06:20:30;;;;;;;2.22;1.90;;;;;;;10.21;52.90;100418.66;5046069;28;20508;-49
2022/04/10 06:24:52;;;;;;;8.18;7.57;;;;;;;10.38;52.66;100419.41;5080336;27;2086785;-48
2022/04/10 06:27:20;;;;;;;17.55;16.40;;;;;;;10.56;53.29;100420.94;5147997;27;20466;-49
2022/04/10 06:29:47;;;;;;;4.63;4.32;;;;;;;10.51;51.75;100411.72;5148028;27;20405;-48
2022/04/10 06:32:14;;;;;;;1.58;1.48;;;;;;;10.21;52.10;100410.72;5148391;27;20442;-49
2022/04/10 06:34:41;;;;;;;10.00;9.30;;;;;;;10.45;51.82;100419.53;5147994;27;20443;-49
2022/04/10 06:37:08;;;;;;;5.50;5.13;;;;;;;10.57;51.82;100431.38;5147984;27;20444;-48
2022/04/10 06:39:35;;;;;;;2.70;2.00;;;;;;;10.87;51.65;100431.47;5148202;27;20417;-49
2022/04/10 06:42:06;;;;;;;1.40;1.25;;;;;;;10.82;51.19;100429.38;5147807;27;20894;-49
2022/04/10 06:44:33;;;;;;;2.05;1.30;;;;;;;10.22;51.86;100411.53;5148126;27;20913;-50
2022/04/10 06:47:00;;;;;;;2.23;1.70;;;;;;;10.14;51.34;100415.06;5147690;27;20929;-51
2022/04/10 06:49:27;;;;;;;2.80;1.77;;;;;;;10.23;50.73;100407.91;5147749;27;20449;-52
2022/04/10 06:51:54;;;;;;;2.78;2.25;;;;;;;10.19;50.35;100406.59;5147605;27;20448;-52
2022/04/10 06:54:23;;;;;;;2.33;1.80;;;;;;;9.87;50.90;100414.53;5111442;27;20405;-50
2022/04/10 06:56:50;;;;;;;1.88;1.60;;;;;;;10.25;50.21;100421.78;5147596;27;20413;-51
2022/04/10 06:59:18;;;;;;;1.73;1.63;;;;;;;10.43;50.04;100432.97;5147611;27;20417;-51
2022/04/10 07:01:45;;;;;;;1.37;1.27;;;;;;;10.25;50.28;100440.34;5147191;27;20912;-52
2022/04/10 07:04:13;;;;;;;1.08;0.98;;;;;;;10.45;49.55;100430.97;5140942;27;20457;-50
2022/04/10 07:06:40;;;;;;;1.38;0.95;;;;;;;10.43;48.91;100448.84;5147293;27;20493;-50
2022/04/10 07:09:07;;;;;;;1.35;1.00;;;;;;;10.53;49.30;100440.66;5146605;27;20440;-48
2022/04/10 07:11:34;;;;;;;1.50;0.98;;;;;;;10.52;48.85;100431.91;5146762;27;20484;-50
2022/04/10 07:14:01;;;;;;;1.65;1.17;;;;;;;10.55;48.74;100425.41;5147215;27;20445;-49
2022/04/10 07:16:29;;;;;;;0.80;0.80;;;;;;;10.83;47.75;100412.44;5143876;27;20925;-53
2022/04/10 07:18:56;;;;;;;1.13;1.02;;;;;;;10.99;48.05;100424.72;5144510;27;20405;-49
2022/04/10 07:24:18;;;;;;;1.77;1.25;;;;;;;11.05;48.07;100418.69;5104713;27;20477;-49
2022/04/10 07:26:44;;;;;;;2.30;1.40;;;;;;;11.20;47.60;100417.91;5101337;28;20430;-49
2022/04/10 07:29:12;;;;;;;1.10;1.00;;;;;;;11.09;47.37;100421.81;5099690;28;20440;-50
2022/04/10 07:31:40;;;;;;;2.30;0.93;;;;;;;11.33;47.57;100425.25;5101540;28;20496;-48
2022/04/10 07:34:08;;;;;;;2.05;1.58;;;;;;;11.55;46.68;100432.28;5101429;28;20893;-49
2022/04/10 07:36:34;;;;;;;2.00;1.20;;;;;;;11.69;45.76;100432.50;5104988;28;20431;-51
2022/04/10 07:40:51;;;;;;;2.13;1.33;;;;;;;11.64;45.37;100433.03;5088722;27;2131748;-50
2022/04/10 07:43:18;;;;;;;1.27;1.10;;;;;;;12.03;44.74;100432.75;5152611;27;20401;-48
2022/04/10 07:48:29;;;;;;;1.60;1.30;;;;;;;12.05;44.24;100424.59;5156739;27;20909;-49
2022/04/10 07:50:57;;;;;;;1.30;1.20;;;;;;;11.86;44.83;100424.09;5151763;27;20931;-49
2022/04/10 07:53:24;;;;;;;1.55;1.33;;;;;;;11.97;44.15;100408.75;5150345;27;20412;-49
2022/04/10 07:55:52;;;;;;;3.13;1.80;;;;;;;11.87;44.83;100409.00;5150207;27;20436;-49
2022/04/10 07:58:20;;;;;;;4.03;2.20;;;;;;;11.89;44.55;100412.31;5152501;27;20437;-52
2022/04/10 08:00:47;;;;;;;3.85;2.03;;;;;;;11.72;45.01;100417.00;5155357;27;20784;-50
2022/04/10 08:03:14;;;;;;;2.83;1.90;;;;;;;12.12;44.27;100421.97;5151774;27;20411;-49
2022/04/10 08:05:41;;;;;;;2.53;1.20;;;;;;;11.93;44.42;100421.56;5151852;27;20768;-49
2022/04/10 08:08:10;;;;;;;1.77;1.33;;;;;;;11.89;44.96;100419.47;5151708;27;20438;-50
2022/04/10 08:10:37;;;;;;;1.58;1.48;;;;;;;12.18;44.39;100418.59;5153921;27;20405;-50
2022/04/10 08:13:05;;;;;;;2.78;1.67;;;;;;;12.29;44.14;100420.75;5145182;27;20966;-49
2022/04/10 08:15:32;;;;;;;1.75;1.40;;;;;;;12.35;43.43;100427.16;5133924;27;20406;-49
2022/04/10 08:17:59;;;;;;;2.00;1.30;;;;;;;12.42;43.30;100418.25;5127515;27;20972;-51
2022/04/10 08:20:27;;;;;;;1.95;1.65;;;;;;;12.66;42.88;100426.00;5127084;27;20450;-50
2022/04/10 08:22:58;;;;;;;2.10;1.30;;;;;;;12.68;42.02;100426.66;5127408;27;20510;-49
2022/04/10 08:25:26;;;;;;;2.22;1.52;;;;;;;12.36;42.54;100423.50;5127402;27;20410;-50
2022/04/10 08:27:53;;;;;;;1.70;1.40;;;;;;;12.23;43.40;100419.69;5136635;27;20437;-50
2022/04/10 08:30:21;;;;;;;1.98;1.50;;;;;;;12.37;42.56;100422.47;5136359;27;20502;-49
2022/04/10 08:32:49;;;;;;;2.10;1.70;;;;;;;12.55;42.41;100424.69;5127336;27;20478;-50
2022/04/10 08:35:16;;;;;;;2.58;1.70;;;;;;;12.63;42.34;100437.88;5126897;27;20985;-51
2022/04/10 08:37:45;;;;;;;3.30;1.90;;;;;;;12.45;42.62;100437.50;5126317;27;20407;-49
2022/04/10 08:40:13;;;;;;;3.33;3.03;;;;;;;12.94;41.86;100421.53;5125988;27;20458;-51
2022/04/10 08:42:40;;;;;;;2.87;2.20;;;;;;;12.61;41.98;100408.78;5126462;27;20474;-49
2022/04/10 08:45:09;;;;;;;3.05;2.05;;;;;;;12.57;42.07;100410.19;5126167;27;20711;-48
2022/04/10 08:47:39;;;;;;;2.80;1.80;;;;;;;12.52;41.99;100404.63;5126192;27;20407;-49
2022/04/10 08:50:07;;;;;;;2.42;2.13;;;;;;;12.41;42.70;100410.47;5124999;27;20936;-50
2022/04/10 08:52:35;;;;;;;4.03;2.28;;;;;;;12.68;42.30;100410.72;5116950;27;20920;-49
2022/04/10 08:55:02;;;;;;;2.55;1.92;;;;;;;12.79;42.02;100403.03;5137917;27;20899;-50
2022/04/10 08:57:29;;;;;;;4.40;2.90;;;;;;;12.53;42.22;100416.06;5137263;27;20913;-50
2022/04/10 08:59:58;;;;;;;2.67;2.28;;;;;;;12.80;41.59;100419.78;5139589;27;20421;-48
2022/04/10 09:02:25;;;;;;;3.20;2.50;;;;;;;12.97;41.22;100412.38;5032325;27;20427;-49
2022/04/10 09:04:54;;;;;;;3.60;2.70;;;;;;;12.79;41.39;100415.50;5086551;28;20409;-50
2022/04/10 09:07:23;;;;;;;4.35;3.00;;;;;;;12.49;42.21;100418.28;5086915;28;20413;-49
2022/04/10 09:09:56;;;;;;;3.88;2.17;;;;;;;12.32;42.26;100422.22;5045453;28;20407;-49
2022/04/10 09:12:23;;;;;;;4.28;2.88;;;;;;;12.50;41.89;100424.44;4936745;28;82384;-51
2022/04/10 09:14:50;;;;;;;3.95;2.50;;;;;;;12.57;41.98;100420.84;5078453;28;20414;-50
2022/04/10 09:17:18;;;;;;;3.65;2.80;;;;;;;12.35;42.44;100425.34;5064741;28;20410;-50
2022/04/10 09:19:47;;;;;;;5.33;3.20;;;;;;;12.42;42.30;100431.53;5061481;28;20433;-52
2022/04/10 09:22:23;;;;;;;9.18;7.03;;;;;;;12.49;42.57;100436.91;5065566;28;20415;-50
2022/04/10 09:25:05;;;;;;;4.70;3.40;;;;;;;12.33;42.95;100432.66;5066218;28;20423;-53
2022/04/10 09:27:33;;;;;;;5.95;4.85;;;;;;;11.91;43.96;100420.13;5062937;28;20411;-50
2022/04/10 09:30:00;;;;;;;6.45;5.35;;;;;;;12.33;42.82;100434.50;5067565;28;20417;-49
2022/04/10 09:32:44;;;;;;;5.43;4.93;;;;;;;12.23;42.52;100424.19;5067843;28;20504;-51
2022/04/10 09:35:12;;;;;;;4.95;4.43;;;;;;;12.18;42.80;100427.38;5064447;28;20442;-51
2022/04/10 09:37:47;;;;;;;7.30;6.60;;;;;;;12.36;42.62;100426.16;5055670;28;20410;-50
2022/04/10 09:40:28;;;;;;;6.05;5.15;;;;;;;12.11;42.41;100430.97;5051495;28;20486;-49
2022/04/10 09:43:06;;;;;;;5.38;4.40;;;;;;;12.05;42.91;100429.91;5069510;28;20413;-50
2022/04/10 09:45:35;;;;;;;6.38;5.18;;;;;;;12.36;42.70;100424.31;5069126;28;20908;-51
2022/04/10 09:48:20;;;;;;;5.70;4.07;;;;;;;12.36;42.34;100423.50;5070453;28;20422;-50
2022/04/10 09:50:48;;;;;;;5.82;4.70;;;;;;;12.47;42.11;100417.66;5069737;28;20411;-50
2022/04/10 09:53:17;;;;;;;4.60;4.10;;;;;;;12.29;42.84;100423.41;5070122;28;20414;-51
2022/04/10 09:55:44;;;;;;;9.18;5.00;;;;;;;12.59;42.17;100425.97;5068884;28;20411;-58
2022/04/10 09:58:13;;;;;;;9.20;5.65;;;;;;;12.68;42.22;100432.00;5069484;28;20421;-51
2022/04/10 10:00:41;;;;;;;4.60;3.20;;;;;;;12.65;41.87;100427.03;5070349;28;20444;-49
2022/04/10 10:03:09;;;;;;;4.38;3.22;;;;;;;12.50;42.16;100427.94;5068133;28;20429;-49
2022/04/10 10:05:37;;;;;;;4.78;3.22;;;;;;;12.37;42.48;100412.66;5069739;28;20492;-49
2022/04/10 10:08:05;;;;;;;5.10;2.92;;;;;;;12.36;42.56;100405.69;5060927;28;20886;-49
2022/04/10 10:10:35;;;;;;;6.68;4.50;;;;;;;12.55;42.42;100409.56;5066233;28;20942;-49
2022/04/10 10:13:03;;;;;;;9.30;5.00;;;;;;;12.78;41.90;100416.50;5068997;28;20415;-49
2022/04/10 10:15:30;;;;;;;6.97;3.90;;;;;;;12.74;42.13;100416.06;5066692;28;20419;-50
2022/04/10 10:17:58;;;;;;;11.98;5.25;;;;;;;12.96;41.39;100424.88;5069335;28;20484;-49
2022/04/10 10:20:25;;;;;;;8.30;4.78;;;;;;;12.94;41.26;100410.09;5069178;28;20554;-49
2022/04/10 10:22:52;;;;;;;13.23;8.15;;;;;;;12.79;41.11;100408.34;5068929;28;20788;-51
2022/04/10 10:25:27;;;;;;;16.30;11.95;;;;;;;13.04;40.52;100420.41;5068758;28;20442;-49
2022/04/10 10:28:41;;;;;;;16.60;10.93;;;;;;;13.06;40.21;100413.06;5068673;28;20418;-52
2022/04/10 10:31:24;;;;;;;19.90;15.90;;;;;;;13.35;39.48;100407.53;5025135;28;20450;-51
2022/04/10 10:33:53;;;;;;;4.63;3.75;;;;;;;13.32;39.73;100407.09;5067705;28;20411;-53
2022/04/10 10:36:26;;;;;;;5.70;3.17;;;;;;;13.09;40.21;100407.31;5067809;28;20410;-50
2022/04/10 10:38:54;;;;;;;6.60;3.25;;;;;;;13.11;40.63;100400.81;5062651;28;20409;-51
2022/04/10 10:41:38;;;;;;;5.63;3.50;;;;;;;13.28;40.43;100406.66;5048974;28;20941;-51
2022/04/10 10:44:39;;;;;;;4.13;2.42;;;;;;;13.46;39.25;100394.69;5047776;28;20635;-52
2022/04/10 10:47:17;;;;;;;3.55;1.90;;;;;;;13.20;39.02;100401.50;5048029;28;20929;-53
2022/04/10 10:49:45;;;;;;;4.05;2.08;;;;;;;13.37;38.62;100399.34;5049248;28;20923;-50
2022/04/10 10:52:13;;;;;;;3.08;2.05;;;;;;;13.48;38.35;100397.97;5050271;28;20413;-52
2022/04/10 10:54:46;;;;;;;4.05;2.10;;;;;;;13.49;38.18;100395.13;5049730;28;20421;-51
2022/04/10 10:57:39;;;;;;;2.97;1.70;;;;;;;13.52;38.26;100383.25;5048191;28;20408;-50
2022/04/10 11:00:10;;;;;;;4.40;2.88;;;;;;;13.81;38.01;100384.84;5048764;28;20941;-50
2022/04/10 11:02:39;;;;;;;3.17;2.88;;;;;;;14.05;37.66;100377.31;5062788;28;20423;-50
2022/04/10 11:05:08;;;;;;;3.78;2.15;;;;;;;14.17;37.49;100366.88;5068654;28;20419;-49
2022/04/10 11:07:39;;;;;;;4.05;2.92;;;;;;;14.19;37.00;100364.81;5065391;28;20760;-49
2022/04/10 11:10:09;;;;;;;5.68;2.80;;;;;;;14.14;37.12;100370.78;5053684;28;20485;-49
2022/04/10 11:12:48;;;;;;;3.53;2.83;;;;;;;14.26;37.07;100363.00;5054355;28;20422;-52
2022/04/10 11:15:21;;;;;;;6.40;4.47;;;;;;;14.25;36.95;100367.50;5054806;28;20416;-49
2022/04/10 11:17:51;;;;;;;5.05;2.80;;;;;;;14.04;37.35;100351.69;5061536;28;20434;-49
2022/04/10 11:20:20;;;;;;;5.53;2.90;;;;;;;14.37;36.69;100356.25;5060239;28;20428;-49
2022/04/10 11:22:49;;;;;;;3.10;2.30;;;;;;;14.04;36.79;100349.81;5055073;28;20436;-49
2022/04/10 11:25:19;;;;;;;3.33;2.22;;;;;;;14.28;36.64;100347.63;5058729;28;20799;-48
2022/04/10 11:27:51;;;;;;;5.32;3.20;;;;;;;14.82;35.88;100337.81;5050650;28;20794;-50
2022/04/10 11:30:23;;;;;;;4.15;3.08;;;;;;;14.85;35.97;100356.06;5049465;28;20408;-49
2022/04/10 11:35:24;;;;;;;5.57;2.97;;;;;;;14.82;35.65;100368.00;5073425;27;20410;-48
2022/04/10 11:37:54;;;;;;;4.45;2.90;;;;;;;14.79;35.64;100368.41;5063260;28;20909;-49
2022/04/10 11:40:24;;;;;;;2.83;2.20;;;;;;;14.81;35.24;100371.69;5066331;28;20412;-49
2022/04/10 11:42:54;;;;;;;3.80;2.35;;;;;;;14.78;35.33;100361.41;5067759;28;20503;-51
2022/04/10 11:45:22;;;;;;;5.43;3.30;;;;;;;14.75;35.34;100359.19;5070039;28;20476;-54
2022/04/10 11:47:50;;;;;;;4.10;2.47;;;;;;;15.06;35.35;100349.69;5069225;28;20424;-49
2022/04/10 11:50:19;;;;;;;3.72;2.53;;;;;;;14.97;35.12;100364.28;5063634;28;20443;-50
2022/04/10 11:53:01;;;;;;;4.30;2.80;;;;;;;14.90;35.71;100358.94;5065599;28;20473;-50